createdAt,value
2023-11-12T00:01:32.347Z,6.82
2023-11-12T00:04:03.855Z,6.53
2023-11-12T00:06:35.976Z,6.30
2023-11-12T00:09:06.659Z,7.70
2023-11-12T00:11:37.315Z,6.32
2023-11-12T00:14:07.641Z,7.43
2023-11-12T00:16:37.614Z,7.03
2023-11-12T00:19:09.286Z,7.25
2023-11-12T00:21:39.413Z,6.65
2023-11-12T00:24:12.928Z,7.20
2023-11-12T00:26:44.675Z,7.70
2023-11-12T00:29:14.635Z,9.60
2023-11-12T00:31:45.063Z,8.85
2023-11-12T00:34:16.768Z,8.25
2023-11-12T00:36:46.189Z,9.82
2023-11-12T00:39:18.848Z,9.90
2023-11-12T00:41:49.173Z,8.60
2023-11-12T00:44:19.091Z,9.90
2023-11-12T00:46:48.931Z,10.13
2023-11-12T00:49:20.267Z,10.38
2023-11-12T00:51:50.784Z,9.75
2023-11-12T00:54:20.907Z,9.02
2023-11-12T00:56:51.229Z,10.25
2023-11-12T00:59:22.858Z,10.57
2023-11-12T01:01:52.737Z,9.30
2023-11-12T01:04:28.847Z,8.18
2023-11-12T01:07:01.169Z,8.27
2023-11-12T01:09:33.959Z,7.43
2023-11-12T01:12:04.773Z,9.50
2023-11-12T01:14:35.306Z,8.27
2023-11-12T01:17:06.667Z,8.13
2023-11-12T01:19:38.744Z,7.00
2023-11-12T01:22:11.537Z,8.85
2023-11-12T01:24:42.832Z,7.32
2023-11-12T01:27:13.319Z,6.97
2023-11-12T01:29:43.281Z,6.90
2023-11-12T01:32:14.260Z,9.48
2023-11-12T01:35:04.678Z,8.27
2023-11-12T01:37:34.579Z,7.32
2023-11-12T01:40:05.659Z,7.53
2023-11-12T01:42:36.009Z,7.30
2023-11-12T01:45:12.502Z,7.07
2023-11-12T01:47:45.756Z,8.00
2023-11-12T01:52:51.200Z,7.70
2023-11-12T01:55:23.660Z,7.70
2023-11-12T01:57:58.523Z,7.03
2023-11-12T02:00:29.106Z,6.97
2023-11-12T02:03:05.721Z,6.00
2023-11-12T02:05:38.651Z,6.05
2023-11-12T02:08:10.435Z,5.28
2023-11-12T02:10:44.526Z,5.82
2023-11-12T02:13:15.480Z,5.78
2023-11-12T02:15:49.055Z,7.60
2023-11-12T02:18:20.027Z,7.03
2023-11-12T02:20:52.827Z,6.03
2023-11-12T02:23:23.340Z,6.43
2023-11-12T02:25:55.209Z,7.60
2023-11-12T02:28:27.028Z,6.43
2023-11-12T02:30:56.987Z,8.25
2023-11-12T02:33:33.843Z,6.15
2023-11-12T02:36:04.860Z,6.45
2023-11-12T02:38:35.090Z,6.78
2023-11-12T02:41:11.167Z,8.40
2023-11-12T02:43:43.432Z,8.75
2023-11-12T02:46:17.527Z,8.63
2023-11-12T02:49:13.789Z,9.13
2023-11-12T02:51:46.516Z,9.73
2023-11-12T02:54:18.569Z,8.13
2023-11-12T02:56:50.072Z,9.43
2023-11-12T02:59:21.887Z,7.80
2023-11-12T03:01:51.747Z,7.93
2023-11-12T03:04:22.228Z,9.05
2023-11-12T03:06:55.395Z,10.13
2023-11-12T03:09:30.192Z,7.53
2023-11-12T03:12:04.283Z,8.77
2023-11-12T03:14:35.083Z,8.38
2023-11-12T03:17:05.649Z,8.00
2023-11-12T03:19:37.161Z,7.72
2023-11-12T03:22:07.224Z,8.50
2023-11-12T03:24:38.281Z,8.00
2023-11-12T03:27:10.559Z,7.18
2023-11-12T03:29:40.722Z,7.32
2023-11-12T03:32:11.674Z,8.38
2023-11-12T03:34:45.824Z,8.05
2023-11-12T03:37:16.279Z,8.45
2023-11-12T03:39:46.424Z,10.32
2023-11-12T03:42:18.885Z,8.05
2023-11-12T03:44:50.777Z,7.83
2023-11-12T03:47:21.012Z,9.18
2023-11-12T03:49:50.807Z,9.40
2023-11-12T03:52:20.784Z,9.90
2023-11-12T03:54:50.602Z,9.32
2023-11-12T03:57:22.605Z,8.80
2023-11-12T03:59:53.391Z,8.70
2023-11-12T04:02:23.621Z,10.45
2023-11-12T04:04:53.828Z,7.85
2023-11-12T04:07:24.801Z,7.85
2023-11-12T04:10:01.214Z,7.20
2023-11-12T04:12:32.489Z,7.95
2023-11-12T04:15:02.680Z,9.00
2023-11-12T04:17:33.419Z,8.98
2023-11-12T04:20:04.082Z,8.98
2023-11-12T04:22:34.170Z,10.02
2023-11-12T04:25:04.507Z,9.27
2023-11-12T04:27:39.431Z,9.85
2023-11-12T04:30:13.190Z,8.52
2023-11-12T04:32:43.026Z,10.85
2023-11-12T04:35:14.760Z,9.38
2023-11-12T04:37:44.586Z,9.88
2023-11-12T04:40:17.938Z,11.00
2023-11-12T04:42:49.663Z,10.45
2023-11-12T04:45:21.472Z,10.93
2023-11-12T04:47:52.009Z,10.48
2023-11-12T04:50:25.029Z,11.03
2023-11-12T04:53:00.274Z,11.68
2023-11-12T04:55:30.815Z,13.07
2023-11-12T04:58:02.962Z,10.18
2023-11-12T05:00:36.672Z,10.13
2023-11-12T05:03:07.190Z,9.55
2023-11-12T05:05:37.636Z,10.55
2023-11-12T05:08:07.067Z,10.82
2023-11-12T05:10:44.948Z,9.65
2023-11-12T05:13:17.595Z,10.75
2023-11-12T05:15:47.930Z,10.88
2023-11-12T05:18:17.899Z,10.25
2023-11-12T05:20:49.004Z,11.60
2023-11-12T05:23:18.696Z,11.25
2023-11-12T05:25:48.733Z,10.32
2023-11-12T05:28:20.402Z,9.70
2023-11-12T05:30:50.537Z,11.35
2023-11-12T05:33:20.339Z,11.32
2023-11-12T05:35:52.745Z,12.45
2023-11-12T05:38:23.110Z,10.95
2023-11-12T05:40:53.309Z,11.88
2023-11-12T05:43:25.075Z,11.98
2023-11-12T05:45:55.531Z,12.18
2023-11-12T05:48:25.481Z,12.40
2023-11-12T05:51:02.564Z,12.30
2023-11-12T05:53:32.274Z,11.43
2023-11-12T05:56:01.516Z,11.35
2023-11-12T05:58:32.301Z,10.88
2023-11-12T06:01:01.156Z,9.88
2023-11-12T06:03:30.947Z,11.60
2023-11-12T06:05:59.966Z,11.15
2023-11-12T06:08:28.793Z,12.98
2023-11-12T06:10:57.578Z,11.50
2023-11-12T06:13:26.435Z,10.38
2023-11-12T06:15:56.635Z,10.15
2023-11-12T06:18:25.707Z,12.07
2023-11-12T06:20:54.697Z,10.80
2023-11-12T06:23:23.491Z,10.35
2023-11-12T06:25:52.458Z,9.82
2023-11-12T06:28:23.760Z,11.45
2023-11-12T06:30:55.161Z,10.20
2023-11-12T06:33:25.633Z,9.15
2023-11-12T06:35:54.541Z,9.35
2023-11-12T06:38:24.593Z,11.02
2023-11-12T06:40:53.701Z,11.00
2023-11-12T06:43:22.830Z,11.88
2023-11-12T06:45:51.992Z,11.88
2023-11-12T06:48:25.704Z,11.38
2023-11-12T06:50:56.140Z,11.68
2023-11-12T06:53:25.042Z,12.00
2023-11-12T06:55:54.398Z,17.80
2023-11-12T06:58:25.784Z,36.38
2023-11-12T07:00:57.110Z,21.63
2023-11-12T07:03:28.143Z,16.13
2023-11-12T07:06:00.238Z,16.38
2023-11-12T07:08:32.296Z,16.80
2023-11-12T07:11:03.939Z,16.45
2023-11-12T07:13:32.972Z,16.75
2023-11-12T07:16:03.786Z,17.52
2023-11-12T07:18:45.433Z,16.05
2023-11-12T07:21:32.602Z,15.70
2023-11-12T07:24:01.803Z,17.05
2023-11-12T07:26:31.152Z,17.48
2023-11-12T07:29:00.308Z,16.27
2023-11-12T07:31:30.627Z,18.13
2023-11-12T07:33:59.739Z,17.35
2023-11-12T07:36:32.408Z,19.10
2023-11-12T07:39:02.965Z,18.55
2023-11-12T07:41:39.792Z,21.10
2023-11-12T07:44:13.453Z,18.55
2023-11-12T07:46:42.963Z,18.90
2023-11-12T07:49:13.513Z,17.02
2023-11-12T07:51:49.733Z,15.88
2023-11-12T07:56:48.209Z,16.67
2023-11-12T07:59:17.336Z,15.13
2023-11-12T08:01:49.603Z,15.30
2023-11-12T08:04:19.545Z,14.63
2023-11-12T08:06:52.288Z,14.63
2023-11-12T08:09:21.310Z,13.98
2023-11-12T08:11:50.263Z,14.98
2023-11-12T08:14:19.395Z,16.50
2023-11-12T08:16:48.445Z,16.17
2023-11-12T08:19:17.646Z,16.33
2023-11-12T08:21:46.895Z,16.48
2023-11-12T08:24:17.894Z,17.17
2023-11-12T08:26:46.934Z,29.67
2023-11-12T08:29:17.262Z,57.33
2023-11-12T08:31:46.346Z,21.95
2023-11-12T08:34:15.844Z,19.55
2023-11-12T08:36:44.628Z,19.23
2023-11-12T08:39:14.625Z,20.38
2023-11-12T08:41:48.157Z,20.00
2023-11-12T08:44:19.528Z,19.75
2023-11-12T08:46:51.486Z,18.15
2023-11-12T08:49:22.907Z,17.00
2023-11-12T08:51:51.806Z,18.48
2023-11-12T08:54:21.046Z,19.30
2023-11-12T08:56:54.726Z,16.85
2023-11-12T08:59:24.343Z,18.15
2023-11-12T09:01:53.889Z,17.30
2023-11-12T09:04:23.313Z,17.70
2023-11-12T09:06:52.446Z,16.88
2023-11-12T09:09:21.786Z,16.77
2023-11-12T09:11:50.821Z,16.52
2023-11-12T09:14:23.724Z,16.52
2023-11-12T09:16:55.143Z,15.07
2023-11-12T09:19:24.145Z,15.40
2023-11-12T09:21:54.558Z,16.63
2023-11-12T09:24:24.140Z,16.50
2023-11-12T09:26:53.737Z,17.88
2023-11-12T09:29:24.960Z,17.30
2023-11-12T09:31:53.918Z,16.90
2023-11-12T09:34:23.227Z,16.23
2023-11-12T09:36:53.019Z,16.77
2023-11-12T09:39:24.706Z,15.20
2023-11-12T09:42:00.107Z,15.80
2023-11-12T09:44:33.445Z,16.92
2023-11-12T09:47:13.614Z,100.18
2023-11-12T09:49:42.920Z,32.70
2023-11-12T09:52:14.508Z,20.00
2023-11-12T09:54:45.519Z,18.52
2023-11-12T09:57:15.020Z,18.23
2023-11-12T09:59:47.804Z,17.35
2023-11-12T10:02:18.961Z,16.85
2023-11-12T10:04:59.200Z,15.02
2023-11-12T10:07:30.480Z,16.35
2023-11-12T10:10:22.864Z,16.20
2023-11-12T10:12:53.614Z,16.88
2023-11-12T10:15:28.416Z,18.13
2023-11-12T10:18:01.047Z,17.17
2023-11-12T10:20:38.377Z,16.77
2023-11-12T10:23:32.392Z,17.08
2023-11-12T10:26:12.662Z,15.37
2023-11-12T10:28:47.727Z,18.77
2023-11-12T10:31:19.009Z,17.08
2023-11-12T10:34:01.193Z,16.95
2023-11-12T10:36:30.285Z,15.05
2023-11-12T10:39:12.684Z,16.63
2023-11-12T10:41:45.116Z,16.80
2023-11-12T10:44:18.354Z,17.05
2023-11-12T10:46:54.148Z,15.98
2023-11-12T10:49:25.230Z,16.25
2023-11-12T10:51:57.211Z,17.08
2023-11-12T10:54:27.756Z,13.73
2023-11-12T10:59:32.285Z,14.82
2023-11-12T11:02:03.196Z,15.23
2023-11-12T11:04:35.842Z,18.75
2023-11-12T11:07:05.083Z,19.17
2023-11-12T11:09:34.397Z,19.67
2023-11-12T11:12:03.500Z,22.65
2023-11-12T11:14:35.571Z,23.27
2023-11-12T11:17:09.639Z,24.55
2023-11-12T11:19:57.003Z,25.48
2023-11-12T11:22:39.927Z,23.00
2023-11-12T11:25:26.635Z,26.30
2023-11-12T11:28:23.301Z,28.90
2023-11-12T11:31:18.140Z,25.95
2023-11-12T11:33:53.333Z,24.42
2023-11-12T11:36:24.810Z,21.23
2023-11-12T11:39:26.378Z,24.88
2023-11-12T11:42:20.188Z,23.05
2023-11-12T11:44:51.441Z,24.20
2023-11-12T11:47:23.823Z,26.27
2023-11-12T11:50:45.877Z,27.73
2023-11-12T11:53:18.440Z,24.13
2023-11-12T11:55:56.638Z,24.80
2023-11-12T11:58:29.887Z,25.02
2023-11-12T12:01:14.033Z,26.67
2023-11-12T12:03:55.100Z,26.73
2023-11-12T12:06:28.586Z,23.95
2023-11-12T12:08:58.948Z,21.00
2023-11-12T12:11:35.210Z,20.25
2023-11-12T12:14:06.175Z,19.83
2023-11-12T12:16:36.014Z,20.05
2023-11-12T12:19:06.477Z,19.15
2023-11-12T12:21:37.873Z,18.48
2023-11-12T12:24:08.159Z,18.40
2023-11-12T12:26:41.022Z,20.77
2023-11-12T12:29:23.150Z,20.63
2023-11-12T12:31:55.171Z,18.25
2023-11-12T12:34:26.098Z,20.48
2023-11-12T12:36:58.503Z,18.10
2023-11-12T12:39:29.799Z,18.77
2023-11-12T12:42:04.962Z,19.52
2023-11-12T12:44:34.882Z,19.45
2023-11-12T12:47:04.046Z,21.13
2023-11-12T12:49:34.673Z,24.85
2023-11-12T12:52:08.145Z,22.48
2023-11-12T12:54:40.037Z,22.75
2023-11-12T12:57:09.133Z,24.35
2023-11-12T12:59:39.050Z,23.33
2023-11-12T13:02:11.152Z,21.15
2023-11-12T13:04:40.725Z,24.05
2023-11-12T13:07:11.687Z,22.50
2023-11-12T13:09:41.998Z,23.92
2023-11-12T13:12:13.637Z,24.35
2023-11-12T13:14:46.631Z,22.88
2023-11-12T13:17:15.740Z,25.33
2023-11-12T13:19:45.830Z,24.38
2023-11-12T13:22:16.279Z,18.95
2023-11-12T13:24:47.552Z,19.90
2023-11-12T13:27:16.672Z,20.05
2023-11-12T13:29:48.961Z,22.65
2023-11-12T13:32:18.575Z,19.60
2023-11-12T13:34:49.192Z,19.83
2023-11-12T13:37:19.535Z,22.05
2023-11-12T13:39:48.601Z,19.75
2023-11-12T13:42:18.234Z,20.02
2023-11-12T13:44:49.709Z,17.15
2023-11-12T13:47:21.507Z,17.67
2023-11-12T13:49:50.852Z,18.48
2023-11-12T13:52:23.447Z,19.42
2023-11-12T13:54:52.507Z,16.97
2023-11-12T13:57:23.215Z,19.50
2023-11-12T13:59:52.500Z,17.98
2023-11-12T14:02:21.768Z,17.40
2023-11-12T14:04:53.747Z,17.67
2023-11-12T14:07:24.945Z,20.80
2023-11-12T14:09:54.318Z,22.40
2023-11-12T14:12:23.670Z,17.38
2023-11-12T14:14:52.643Z,17.70
2023-11-12T14:17:25.459Z,19.35
2023-11-12T14:20:04.597Z,16.92
2023-11-12T14:22:36.021Z,19.08
2023-11-12T14:25:09.005Z,21.52
2023-11-12T14:27:42.052Z,17.77
2023-11-12T14:30:14.757Z,18.98
2023-11-12T14:32:46.341Z,15.75
2023-11-12T14:35:18.186Z,20.80
2023-11-12T14:37:49.040Z,21.25
2023-11-12T14:40:18.518Z,16.17
2023-11-12T14:42:48.005Z,16.00
2023-11-12T14:45:25.861Z,19.90
2023-11-12T14:48:01.317Z,23.45
2023-11-12T14:50:33.915Z,18.50
2023-11-12T14:53:04.353Z,23.98
2023-11-12T14:55:38.151Z,20.70
2023-11-12T14:58:07.631Z,21.42
2023-11-12T15:00:41.246Z,21.02
2023-11-12T15:03:10.369Z,19.08
2023-11-12T15:05:39.248Z,16.85
2023-11-12T15:08:10.517Z,17.65
2023-11-12T15:10:43.287Z,21.80
2023-11-12T15:13:12.651Z,21.77
2023-11-12T15:15:41.582Z,21.00
2023-11-12T15:18:14.197Z,22.50
2023-11-12T15:20:44.824Z,21.25
2023-11-12T15:23:15.312Z,19.38
2023-11-12T15:25:44.487Z,23.20
2023-11-12T15:28:13.965Z,22.88
2023-11-12T15:30:48.335Z,28.42
2023-11-12T15:33:17.551Z,22.48
2023-11-12T15:35:46.696Z,23.88
2023-11-12T15:38:18.315Z,20.80
2023-11-12T15:40:48.058Z,24.17
2023-11-12T15:43:17.639Z,20.65
2023-11-12T15:45:49.175Z,21.25
2023-11-12T15:48:18.364Z,18.27
2023-11-12T15:50:49.197Z,21.27
2023-11-12T15:53:21.657Z,21.35
2023-11-12T15:55:51.117Z,17.07
2023-11-12T15:58:21.248Z,20.20
2023-11-12T16:00:50.450Z,19.35
2023-11-12T16:03:22.164Z,22.85
2023-11-12T16:05:51.417Z,28.23
2023-11-12T16:08:24.980Z,18.95
2023-11-12T16:10:56.557Z,18.58
2023-11-12T16:13:25.823Z,19.85
2023-11-12T16:15:55.524Z,16.38
2023-11-12T16:18:24.867Z,19.17
2023-11-12T16:20:54.017Z,17.73
2023-11-12T16:23:25.316Z,24.05
2023-11-12T16:25:55.588Z,18.73
2023-11-12T16:28:24.552Z,20.95
2023-11-12T16:30:55.293Z,21.15
2023-11-12T16:33:24.914Z,21.55
2023-11-12T16:35:53.762Z,19.88
2023-11-12T16:38:24.437Z,23.45
2023-11-12T16:40:53.325Z,20.33
2023-11-12T16:43:22.793Z,22.23
2023-11-12T16:45:53.083Z,22.30
2023-11-12T16:48:22.627Z,24.17
2023-11-12T16:50:54.139Z,20.88
2023-11-12T16:53:26.209Z,21.50
2023-11-12T16:55:56.064Z,21.90
2023-11-12T16:58:25.312Z,26.52
2023-11-12T17:00:56.185Z,22.98
2023-11-12T17:03:25.524Z,21.05
2023-11-12T17:05:54.788Z,23.83
2023-11-12T17:08:25.387Z,21.48
2023-11-12T17:10:55.524Z,23.05
2023-11-12T17:13:25.000Z,22.27
2023-11-12T17:15:53.987Z,18.55
2023-11-12T17:18:25.744Z,19.77
2023-11-12T17:20:54.905Z,22.08
2023-11-12T17:23:25.609Z,22.17
2023-11-12T17:25:55.286Z,19.65
2023-11-12T17:28:24.952Z,22.65
2023-11-12T17:30:56.719Z,19.58
2023-11-12T17:33:27.373Z,20.67
2023-11-12T17:35:56.679Z,18.55
2023-11-12T17:38:35.078Z,18.55
2023-11-12T17:41:05.059Z,24.13
2023-11-12T17:43:34.168Z,26.17
2023-11-12T17:46:07.065Z,25.77
2023-11-12T17:48:36.265Z,25.90
2023-11-12T17:51:05.661Z,26.48
2023-11-12T17:53:39.432Z,28.30
2023-11-12T17:56:13.433Z,27.83
2023-11-12T17:58:42.478Z,25.38
2023-11-12T18:01:14.015Z,23.67
2023-11-12T18:03:44.065Z,24.15
2023-11-12T18:06:13.608Z,24.88
2023-11-12T18:08:44.072Z,26.80
2023-11-12T18:11:18.141Z,22.88
2023-11-12T18:13:48.936Z,23.80
2023-11-12T18:16:21.195Z,23.77
2023-11-12T18:18:50.646Z,23.30
2023-11-12T18:21:19.826Z,24.58
2023-11-12T18:23:50.062Z,22.65
2023-11-12T18:26:20.024Z,24.73
2023-11-12T18:28:53.204Z,24.75
2023-11-12T18:31:25.320Z,26.90
2023-11-12T18:33:54.551Z,101.43
2023-11-12T18:36:23.790Z,45.53
2023-11-12T18:38:54.103Z,28.38
2023-11-12T18:41:23.327Z,34.13
2023-11-12T18:43:53.363Z,35.72
2023-11-12T18:46:22.943Z,36.65
2023-11-12T18:48:52.282Z,33.88
2023-11-12T18:51:21.478Z,35.90
2023-11-12T18:53:51.610Z,33.95
2023-11-12T18:56:22.160Z,34.33
2023-11-12T18:58:57.059Z,33.92
2023-11-12T19:01:26.505Z,29.40
2023-11-12T19:03:55.991Z,30.42
2023-11-12T19:06:25.707Z,30.67
2023-11-12T19:08:55.053Z,30.10
2023-11-12T19:11:28.027Z,27.65
2023-11-12T19:13:58.525Z,30.77
2023-11-12T19:16:28.579Z,26.83
2023-11-12T19:18:59.827Z,24.02
2023-11-12T19:21:29.176Z,31.40
2023-11-12T19:23:59.303Z,26.27
2023-11-12T19:26:29.082Z,27.90
2023-11-12T19:30:15.010Z,26.65
2023-11-12T19:32:46.790Z,27.90
2023-11-12T19:35:19.765Z,25.15
2023-11-12T19:37:49.175Z,29.90
2023-11-12T19:40:23.439Z,30.15
2023-11-12T19:42:53.788Z,27.67
2023-11-12T19:45:23.024Z,29.10
2023-11-12T19:47:55.638Z,28.77
2023-11-12T19:50:25.219Z,28.27
2023-11-12T19:52:54.127Z,28.30
2023-11-12T19:55:25.395Z,30.98
2023-11-12T19:57:55.991Z,35.17
2023-11-12T20:00:25.309Z,28.70
2023-11-12T20:02:54.481Z,29.77
2023-11-12T20:05:24.021Z,29.67
2023-11-12T20:07:52.974Z,36.17
2023-11-12T20:10:22.499Z,28.88
2023-11-12T20:12:51.775Z,28.42
2023-11-12T20:15:22.730Z,28.30
2023-11-12T20:17:52.744Z,29.63
2023-11-12T20:20:27.412Z,29.58
2023-11-12T20:22:58.640Z,26.00
2023-11-12T20:25:28.395Z,33.97
2023-11-12T20:27:58.199Z,31.48
2023-11-12T20:30:33.666Z,27.05
2023-11-12T20:33:04.364Z,26.00
2023-11-12T20:35:33.978Z,25.67
2023-11-12T20:38:07.061Z,30.77
2023-11-12T20:40:39.349Z,40.80
2023-11-12T20:43:11.912Z,50.75
2023-11-12T20:45:43.023Z,33.38
2023-11-12T20:50:46.418Z,28.85
2023-11-12T20:53:16.309Z,32.63
2023-11-12T20:55:45.462Z,40.05
2023-11-12T20:58:17.666Z,37.75
2023-11-12T21:00:49.269Z,29.50
2023-11-12T21:03:23.440Z,27.48
2023-11-12T21:05:53.250Z,22.30
2023-11-12T21:08:23.410Z,26.23
2023-11-12T21:10:53.924Z,31.55
2023-11-12T21:13:24.409Z,24.33
2023-11-12T21:15:56.768Z,34.00
2023-11-12T21:18:36.389Z,25.63
2023-11-12T21:21:06.632Z,22.20
2023-11-12T21:23:37.098Z,22.92
2023-11-12T21:28:45.062Z,30.00
2023-11-12T21:31:17.068Z,27.85
2023-11-12T21:33:49.605Z,24.80
2023-11-12T21:36:20.287Z,25.98
2023-11-12T21:38:50.625Z,29.38
2023-11-12T21:41:21.013Z,29.73
2023-11-12T21:43:52.375Z,28.60
2023-11-12T21:46:24.490Z,26.98
2023-11-12T21:48:54.675Z,27.60
2023-11-12T21:51:31.713Z,29.20
2023-11-12T21:54:02.061Z,30.42
2023-11-12T21:56:32.193Z,30.67
2023-11-12T21:59:03.197Z,28.48
2023-11-12T22:01:34.691Z,33.47
2023-11-12T22:04:05.427Z,29.48
2023-11-12T22:06:38.396Z,30.15
2023-11-12T22:09:14.946Z,32.35
2023-11-12T22:11:48.015Z,39.40
2023-11-12T22:14:18.239Z,35.17
2023-11-12T22:16:49.478Z,34.85
2023-11-12T22:19:22.094Z,33.55
2023-11-12T22:21:52.063Z,29.97
2023-11-12T22:24:22.883Z,30.33
2023-11-12T22:26:54.058Z,27.25
2023-11-12T22:29:23.977Z,26.45
2023-11-12T22:31:55.711Z,28.15
2023-11-12T22:34:26.340Z,25.83
2023-11-12T22:36:56.009Z,26.55
2023-11-12T22:39:25.981Z,28.58
2023-11-12T22:41:55.976Z,25.88
2023-11-12T22:44:25.963Z,25.33
2023-11-12T22:46:58.511Z,24.48
2023-11-12T22:49:29.335Z,23.20
2023-11-12T22:51:59.668Z,27.30
2023-11-12T22:57:01.168Z,22.80
2023-11-12T22:59:31.191Z,22.48
2023-11-12T23:02:03.360Z,23.42
2023-11-12T23:04:32.619Z,22.13
2023-11-12T23:07:05.209Z,24.90
2023-11-12T23:09:35.677Z,25.13
2023-11-12T23:12:11.896Z,22.98
2023-11-12T23:14:41.779Z,24.70
2023-11-12T23:17:14.200Z,21.85
2023-11-12T23:19:44.514Z,24.63
2023-11-12T23:22:15.751Z,20.92
2023-11-12T23:24:45.786Z,22.48
2023-11-12T23:27:16.774Z,23.23
2023-11-12T23:29:50.298Z,22.02
2023-11-12T23:34:50.777Z,22.73
2023-11-12T23:37:21.317Z,22.40
2023-11-12T23:39:51.132Z,22.92
2023-11-12T23:42:20.842Z,23.88
2023-11-12T23:44:49.975Z,23.98
2023-11-12T23:47:22.108Z,24.10
2023-11-12T23:49:51.666Z,21.38
2023-11-12T23:52:21.222Z,21.55
2023-11-12T23:54:50.567Z,21.58
2023-11-12T23:57:19.861Z,19.67
2023-11-12T23:59:49.499Z,21.95
